createdAt,value
2018-12-16T00:00:29.575Z,18.40
2018-12-16T00:03:00.514Z,20.83
2018-12-16T00:05:31.180Z,17.83
2018-12-16T00:08:01.411Z,19.40
2018-12-16T00:10:31.497Z,20.90
2018-12-16T00:13:01.622Z,20.07
2018-12-16T00:15:31.894Z,20.00
2018-12-16T00:18:02.778Z,18.83
2018-12-16T00:20:34.156Z,19.07
2018-12-16T00:23:04.766Z,19.03
2018-12-16T00:25:35.512Z,18.57
2018-12-16T00:28:06.506Z,19.43
2018-12-16T00:30:36.812Z,18.20
2018-12-16T00:33:08.012Z,18.63
2018-12-16T00:35:37.987Z,18.23
2018-12-16T00:38:08.466Z,17.40
2018-12-16T00:40:38.543Z,19.20
2018-12-16T00:43:08.835Z,18.13
2018-12-16T00:45:38.857Z,19.50
2018-12-16T00:48:10.373Z,19.40
2018-12-16T00:50:40.440Z,18.80
2018-12-16T00:53:11.500Z,21.43
2018-12-16T00:55:41.590Z,18.30
2018-12-16T00:58:12.298Z,18.23
2018-12-16T01:00:42.481Z,19.80
2018-12-16T01:03:13.070Z,19.87
2018-12-16T01:05:44.134Z,20.17
2018-12-16T01:08:15.143Z,18.30
2018-12-16T01:10:45.191Z,18.70
2018-12-16T01:13:15.492Z,18.17
2018-12-16T01:15:45.606Z,18.80
2018-12-16T01:18:15.802Z,18.87
2018-12-16T01:20:45.892Z,19.80
2018-12-16T01:23:16.325Z,19.90
2018-12-16T01:25:46.409Z,23.00
2018-12-16T01:28:16.611Z,21.53
2018-12-16T01:30:47.456Z,22.17
2018-12-16T01:33:17.652Z,22.60
2018-12-16T01:35:48.711Z,22.03
2018-12-16T01:38:19.405Z,23.37
2018-12-16T01:40:51.020Z,24.73
2018-12-16T01:43:21.114Z,26.47
2018-12-16T01:45:51.326Z,26.90
2018-12-16T01:48:21.319Z,24.63
2018-12-16T01:50:51.907Z,22.20
2018-12-16T01:53:22.190Z,25.03
2018-12-16T01:55:52.268Z,25.17
2018-12-16T01:58:23.456Z,24.27
2018-12-16T02:00:54.469Z,24.57
2018-12-16T02:03:24.627Z,24.43
2018-12-16T02:05:54.738Z,25.23
2018-12-16T02:08:26.217Z,27.10
2018-12-16T02:10:56.453Z,25.20
2018-12-16T02:13:26.554Z,27.67
2018-12-16T02:15:56.645Z,28.40
2018-12-16T02:18:27.347Z,27.60
2018-12-16T02:20:57.810Z,26.27
2018-12-16T02:23:28.028Z,27.20
2018-12-16T02:25:58.169Z,26.30
2018-12-16T02:28:29.278Z,29.27
2018-12-16T02:30:59.304Z,24.67
2018-12-16T02:33:30.771Z,25.97
2018-12-16T02:36:00.910Z,29.27
2018-12-16T02:38:32.147Z,29.70
2018-12-16T02:41:02.279Z,26.80
2018-12-16T02:43:32.434Z,25.43
2018-12-16T02:46:02.928Z,24.63
2018-12-16T02:48:33.757Z,24.90
2018-12-16T02:51:03.703Z,27.37
2018-12-16T02:53:33.709Z,26.23
2018-12-16T02:56:04.604Z,24.70
2018-12-16T02:58:34.749Z,25.23
2018-12-16T03:01:05.002Z,26.53
2018-12-16T03:03:35.091Z,27.40
2018-12-16T03:06:05.250Z,24.30
2018-12-16T03:08:35.432Z,25.00
2018-12-16T03:11:05.567Z,22.87
2018-12-16T03:13:35.541Z,25.43
2018-12-16T03:16:05.763Z,26.00
2018-12-16T03:18:35.999Z,23.23
2018-12-16T03:21:07.169Z,26.03
2018-12-16T03:23:37.301Z,25.90
2018-12-16T03:26:07.451Z,22.67
2018-12-16T03:28:38.654Z,25.50
2018-12-16T03:31:08.716Z,24.27
2018-12-16T03:33:38.913Z,23.40
2018-12-16T03:36:08.995Z,23.77
2018-12-16T03:38:39.163Z,26.00
2018-12-16T03:41:10.147Z,25.80
2018-12-16T03:43:40.718Z,24.70
2018-12-16T03:46:11.418Z,23.77
2018-12-16T03:48:41.647Z,26.83
2018-12-16T03:51:11.636Z,25.40
2018-12-16T03:53:42.607Z,26.93
2018-12-16T03:56:14.172Z,28.93
2018-12-16T03:59:01.155Z,25.50
2018-12-16T04:01:31.894Z,24.40
2018-12-16T04:04:03.057Z,25.17
2018-12-16T04:06:33.142Z,29.57
2018-12-16T04:09:03.666Z,22.53
2018-12-16T04:11:33.723Z,29.10
2018-12-16T04:14:04.047Z,28.10
2018-12-16T04:16:34.263Z,26.77
2018-12-16T04:19:04.516Z,25.40
2018-12-16T04:21:35.355Z,25.13
2018-12-16T04:24:06.507Z,24.90
2018-12-16T04:26:36.625Z,26.33
2018-12-16T04:29:07.243Z,23.33
2018-12-16T04:31:37.386Z,24.43
2018-12-16T04:34:07.494Z,25.67
2018-12-16T04:36:38.446Z,27.33
2018-12-16T04:39:09.161Z,25.93
2018-12-16T04:41:39.601Z,27.20
2018-12-16T04:44:09.731Z,24.73
2018-12-16T04:46:39.954Z,26.40
2018-12-16T04:49:10.791Z,26.47
2018-12-16T04:51:40.912Z,26.50
2018-12-16T04:54:11.015Z,22.87
2018-12-16T04:56:41.073Z,25.47
2018-12-16T04:59:12.335Z,24.23
2018-12-16T05:01:42.533Z,26.77
2018-12-16T05:04:12.798Z,22.67
2018-12-16T05:06:42.995Z,23.90
2018-12-16T05:09:12.987Z,23.30
2018-12-16T05:11:43.883Z,23.43
2018-12-16T05:14:14.185Z,23.87
2018-12-16T05:16:45.062Z,25.80
2018-12-16T05:19:15.387Z,24.70
2018-12-16T05:21:45.560Z,23.70
2018-12-16T05:24:15.917Z,23.80
2018-12-16T05:26:46.106Z,24.70
2018-12-16T05:29:16.317Z,25.03
2018-12-16T05:31:46.511Z,25.20
2018-12-16T05:34:16.581Z,24.37
2018-12-16T05:36:47.485Z,23.30
2018-12-16T05:39:17.536Z,23.60
2018-12-16T05:41:47.728Z,25.07
2018-12-16T05:44:18.342Z,23.00
2018-12-16T05:46:48.363Z,24.00
2018-12-16T05:49:18.524Z,23.07
2018-12-16T05:51:48.710Z,24.37
2018-12-16T05:54:18.815Z,22.43
2018-12-16T05:56:48.956Z,22.87
2018-12-16T05:59:19.608Z,23.30
2018-12-16T06:01:50.174Z,23.50
2018-12-16T06:04:20.279Z,21.60
2018-12-16T06:06:50.809Z,24.27
2018-12-16T06:09:21.154Z,24.20
2018-12-16T06:11:51.497Z,23.13
2018-12-16T06:14:21.616Z,22.77
2018-12-16T06:16:52.367Z,24.00
2018-12-16T06:19:22.537Z,23.40
2018-12-16T06:21:52.719Z,25.03
2018-12-16T06:24:23.300Z,24.10
2018-12-16T06:26:54.640Z,24.07
2018-12-16T06:29:24.705Z,23.43
2018-12-16T06:31:55.384Z,20.47
2018-12-16T06:34:26.231Z,22.63
2018-12-16T06:36:57.039Z,25.47
2018-12-16T06:39:27.278Z,23.10
2018-12-16T06:41:58.039Z,21.73
2018-12-16T06:44:28.737Z,22.20
2018-12-16T06:46:58.899Z,22.90
2018-12-16T06:49:28.973Z,24.87
2018-12-16T06:51:59.161Z,21.17
2018-12-16T06:54:30.901Z,25.83
2018-12-16T06:57:01.135Z,23.73
2018-12-16T06:59:31.266Z,23.63
2018-12-16T07:02:02.136Z,22.83
2018-12-16T07:04:32.099Z,22.70
2018-12-16T07:07:02.744Z,23.10
2018-12-16T07:09:33.674Z,25.87
2018-12-16T07:12:04.037Z,25.50
2018-12-16T07:14:34.866Z,24.93
2018-12-16T07:17:05.317Z,24.50
2018-12-16T07:19:35.607Z,22.07
2018-12-16T07:22:05.849Z,25.30
2018-12-16T07:24:36.738Z,25.00
2018-12-16T07:27:06.988Z,25.90
2018-12-16T07:29:37.227Z,25.10
2018-12-16T07:32:07.265Z,22.83
2018-12-16T07:34:37.902Z,22.90
2018-12-16T07:37:08.129Z,22.57
2018-12-16T07:39:38.252Z,21.97
2018-12-16T07:42:09.154Z,23.40
2018-12-16T07:44:39.524Z,24.70
2018-12-16T07:47:09.635Z,24.20
2018-12-16T07:49:40.175Z,22.83
2018-12-16T07:52:10.909Z,23.27
2018-12-16T07:54:42.556Z,20.60
2018-12-16T07:57:12.601Z,22.33
2018-12-16T07:59:42.696Z,22.93
2018-12-16T08:02:12.933Z,24.37
2018-12-16T08:04:43.240Z,22.63
2018-12-16T08:07:13.875Z,23.67
2018-12-16T08:09:44.662Z,24.07
2018-12-16T08:12:14.580Z,23.97
2018-12-16T08:14:44.958Z,21.77
2018-12-16T08:17:15.168Z,21.73
2018-12-16T08:19:45.397Z,22.20
2018-12-16T08:22:15.481Z,23.77
2018-12-16T08:24:46.190Z,20.73
2018-12-16T08:27:16.228Z,21.43
2018-12-16T08:29:46.436Z,22.57
2018-12-16T08:32:16.580Z,23.80
2018-12-16T08:34:46.712Z,23.47
2018-12-16T08:37:17.524Z,22.00
2018-12-16T08:39:48.798Z,22.90
2018-12-16T08:42:18.739Z,23.27
2018-12-16T08:44:50.169Z,22.30
2018-12-16T08:47:20.716Z,22.10
2018-12-16T08:49:50.925Z,24.07
2018-12-16T08:52:22.584Z,22.23
2018-12-16T08:54:53.233Z,23.17
2018-12-16T08:57:24.062Z,22.63
2018-12-16T08:59:54.797Z,22.50
2018-12-16T09:02:34.747Z,21.50
2018-12-16T09:05:05.174Z,21.30
2018-12-16T09:07:37.519Z,24.07
2018-12-16T09:10:09.022Z,23.00
2018-12-16T09:12:39.208Z,22.07
2018-12-16T09:15:10.058Z,22.83
2018-12-16T09:17:40.173Z,23.17
2018-12-16T09:20:10.501Z,23.57
2018-12-16T09:22:40.509Z,21.80
2018-12-16T09:25:10.763Z,23.97
2018-12-16T09:27:42.413Z,23.10
2018-12-16T09:30:14.042Z,24.13
2018-12-16T09:32:44.107Z,25.43
2018-12-16T09:35:14.270Z,21.07
2018-12-16T09:37:44.472Z,22.07
2018-12-16T09:40:14.669Z,23.27
2018-12-16T09:42:45.417Z,22.80
2018-12-16T09:45:15.600Z,22.30
2018-12-16T09:47:45.978Z,22.87
2018-12-16T09:50:15.999Z,21.10
2018-12-16T09:52:46.055Z,20.40
2018-12-16T09:55:16.221Z,22.70
2018-12-16T09:57:46.488Z,24.93
2018-12-16T10:00:16.547Z,25.00
2018-12-16T10:02:46.702Z,22.73
2018-12-16T10:05:16.810Z,22.93
2018-12-16T10:07:47.676Z,22.87
2018-12-16T10:10:17.687Z,22.50
2018-12-16T10:12:49.105Z,23.17
2018-12-16T10:15:19.793Z,22.57
2018-12-16T10:17:50.510Z,22.47
2018-12-16T10:20:21.678Z,23.47
2018-12-16T10:22:52.584Z,22.20
2018-12-16T10:25:22.981Z,22.97
2018-12-16T10:27:54.680Z,20.90
2018-12-16T10:30:25.338Z,20.97
2018-12-16T10:32:59.080Z,25.03
2018-12-16T10:35:30.604Z,21.97
2018-12-16T10:38:00.716Z,22.93
2018-12-16T10:40:31.449Z,23.23
2018-12-16T10:43:01.337Z,21.80
2018-12-16T10:45:31.275Z,25.67
2018-12-16T10:48:01.194Z,26.33
2018-12-16T10:50:31.094Z,22.17
2018-12-16T10:53:01.319Z,22.23
2018-12-16T10:55:31.488Z,22.13
2018-12-16T10:58:01.589Z,23.20
2018-12-16T11:00:36.839Z,21.60
2018-12-16T11:03:07.030Z,23.20
2018-12-16T11:05:38.219Z,20.10
2018-12-16T11:08:08.499Z,19.37
2018-12-16T11:10:38.623Z,21.70
2018-12-16T11:13:08.909Z,21.10
2018-12-16T11:15:39.003Z,20.90
2018-12-16T11:18:09.123Z,17.90
2018-12-16T11:20:40.017Z,20.03
2018-12-16T11:23:15.855Z,21.57
2018-12-16T11:25:51.041Z,18.70
2018-12-16T11:28:21.297Z,19.00
2018-12-16T11:30:51.418Z,16.90
2018-12-16T11:33:21.668Z,17.97
2018-12-16T11:35:51.606Z,17.50
2018-12-16T11:38:21.552Z,18.77
2018-12-16T11:40:51.455Z,18.17
2018-12-16T11:43:21.387Z,18.50
2018-12-16T11:45:51.447Z,16.60
2018-12-16T11:48:21.490Z,19.27
2018-12-16T11:50:52.747Z,18.90
2018-12-16T11:53:23.066Z,18.23
2018-12-16T11:55:53.395Z,18.90
2018-12-16T11:58:24.533Z,17.67
2018-12-16T12:00:54.588Z,17.47
2018-12-16T12:03:24.710Z,16.33
2018-12-16T12:05:54.735Z,19.20
2018-12-16T12:08:25.091Z,17.70
2018-12-16T12:10:55.176Z,18.10
2018-12-16T12:13:25.834Z,18.73
2018-12-16T12:15:55.906Z,18.23
2018-12-16T12:18:26.652Z,17.43
2018-12-16T12:20:56.782Z,17.93
2018-12-16T12:23:27.752Z,16.80
2018-12-16T12:25:58.478Z,17.57
2018-12-16T12:28:29.587Z,17.23
2018-12-16T12:31:00.136Z,17.13
2018-12-16T12:33:30.921Z,17.20
2018-12-16T12:36:02.133Z,15.87
2018-12-16T12:38:32.712Z,18.60
2018-12-16T12:41:02.883Z,17.50
2018-12-16T12:43:33.703Z,16.93
2018-12-16T12:46:04.679Z,19.37
2018-12-16T12:48:34.874Z,16.20
2018-12-16T12:51:05.002Z,17.03
2018-12-16T12:53:36.371Z,17.40
2018-12-16T12:56:06.558Z,17.10
2018-12-16T12:58:38.836Z,15.97
2018-12-16T13:01:09.485Z,15.30
2018-12-16T13:03:39.594Z,17.13
2018-12-16T13:06:10.574Z,15.33
2018-12-16T13:08:40.876Z,15.53
2018-12-16T13:11:11.045Z,15.60
2018-12-16T13:13:41.818Z,16.07
2018-12-16T13:16:12.004Z,15.77
2018-12-16T13:18:43.532Z,15.67
2018-12-16T13:21:13.699Z,14.07
2018-12-16T13:23:43.857Z,12.40
2018-12-16T13:26:13.934Z,15.33
2018-12-16T13:28:44.815Z,14.17
2018-12-16T13:31:14.988Z,13.30
2018-12-16T13:33:45.115Z,11.90
2018-12-16T13:36:15.128Z,14.00
2018-12-16T13:38:45.503Z,12.80
2018-12-16T13:41:15.644Z,14.67
2018-12-16T13:43:46.460Z,13.80
2018-12-16T13:46:17.957Z,14.30
2018-12-16T13:48:48.697Z,12.77
2018-12-16T13:51:20.562Z,13.50
2018-12-16T13:53:51.314Z,13.17
2018-12-16T13:56:22.345Z,14.33
2018-12-16T13:58:52.532Z,13.57
2018-12-16T14:01:22.460Z,13.83
2018-12-16T14:03:52.587Z,14.90
2018-12-16T14:06:22.758Z,12.77
2018-12-16T14:08:53.775Z,15.97
2018-12-16T14:11:24.011Z,15.03
2018-12-16T14:13:54.042Z,12.73
2018-12-16T14:16:24.146Z,13.87
2018-12-16T14:18:54.168Z,14.67
2018-12-16T14:21:24.211Z,14.53
2018-12-16T14:23:54.289Z,14.63
2018-12-16T14:26:25.683Z,17.07
2018-12-16T14:28:55.708Z,19.30
2018-12-16T14:31:27.627Z,17.27
2018-12-16T14:33:58.391Z,15.47
2018-12-16T14:36:28.625Z,16.10
2018-12-16T14:38:58.793Z,15.13
2018-12-16T14:41:28.800Z,15.00
2018-12-16T14:43:59.108Z,20.43
2018-12-16T14:46:30.261Z,17.33
2018-12-16T14:49:00.360Z,19.40
2018-12-16T14:51:31.222Z,17.33
2018-12-16T14:54:01.330Z,15.97
2018-12-16T14:56:32.143Z,21.87
2018-12-16T14:59:03.359Z,20.57
2018-12-16T15:01:33.875Z,16.00
2018-12-16T15:04:04.007Z,16.20
2018-12-16T15:06:34.168Z,17.17
2018-12-16T15:09:08.224Z,15.97
2018-12-16T15:11:38.332Z,14.90
2018-12-16T15:14:08.796Z,14.60
2018-12-16T15:16:38.975Z,17.13
2018-12-16T15:19:09.903Z,15.60
2018-12-16T15:21:40.703Z,15.70
2018-12-16T15:24:10.761Z,28.57
2018-12-16T15:26:40.855Z,23.70
2018-12-16T15:29:10.891Z,21.57
2018-12-16T15:31:40.902Z,19.07
2018-12-16T15:34:11.762Z,19.67
2018-12-16T15:36:42.533Z,18.43
2018-12-16T15:39:12.735Z,19.40
2018-12-16T15:41:42.925Z,27.13
2018-12-16T15:44:13.352Z,30.13
2018-12-16T15:46:43.543Z,18.00
2018-12-16T15:49:14.258Z,29.70
2018-12-16T15:51:44.313Z,34.30
2018-12-16T15:54:14.953Z,35.17
2018-12-16T15:56:45.795Z,22.23
2018-12-16T15:59:15.859Z,26.00
2018-12-16T16:01:45.840Z,29.73
2018-12-16T16:04:16.677Z,22.93
2018-12-16T16:06:47.876Z,16.90
2018-12-16T16:09:18.256Z,27.57
2018-12-16T16:11:48.802Z,44.53
2018-12-16T16:14:19.115Z,55.43
2018-12-16T16:16:49.142Z,41.27
2018-12-16T16:19:19.240Z,30.83
2018-12-16T16:21:49.333Z,32.20
2018-12-16T16:24:19.649Z,27.80
2018-12-16T16:26:49.732Z,23.20
2018-12-16T16:29:19.965Z,20.83
2018-12-16T16:31:50.020Z,28.70
2018-12-16T16:34:20.232Z,18.60
2018-12-16T16:36:50.421Z,17.90
2018-12-16T16:39:21.131Z,17.10
2018-12-16T16:41:51.948Z,21.30
2018-12-16T16:44:22.036Z,19.80
2018-12-16T16:46:52.083Z,19.43
2018-12-16T16:49:22.179Z,19.00
2018-12-16T16:51:52.391Z,18.70
2018-12-16T16:54:23.142Z,19.50
2018-12-16T16:56:53.229Z,20.00
2018-12-16T16:59:24.105Z,21.07
2018-12-16T17:01:54.231Z,21.87
2018-12-16T17:04:24.358Z,25.60
2018-12-16T17:06:54.515Z,23.70
2018-12-16T17:09:25.301Z,22.50
2018-12-16T17:11:55.424Z,23.70
2018-12-16T17:14:25.607Z,19.10
2018-12-16T17:16:55.730Z,19.57
2018-12-16T17:19:26.619Z,32.70
2018-12-16T17:21:58.377Z,35.77
2018-12-16T17:24:29.129Z,27.10
2018-12-16T17:26:59.173Z,31.37
2018-12-16T17:29:29.345Z,24.93
2018-12-16T17:32:00.303Z,26.27
2018-12-16T17:34:30.496Z,24.47
2018-12-16T17:37:01.353Z,22.70
2018-12-16T17:39:32.207Z,23.90
2018-12-16T17:42:02.355Z,23.60
2018-12-16T17:44:32.616Z,23.27
2018-12-16T17:47:02.641Z,27.90
2018-12-16T17:49:33.514Z,23.30
2018-12-16T17:52:03.598Z,20.70
2018-12-16T17:54:33.854Z,30.70
2018-12-16T17:57:03.983Z,25.83
2018-12-16T17:59:34.706Z,32.50
2018-12-16T18:02:05.490Z,29.43
2018-12-16T18:04:36.094Z,22.00
2018-12-16T18:07:07.206Z,21.57
2018-12-16T18:09:37.993Z,25.13
2018-12-16T18:12:08.524Z,23.67
2018-12-16T18:14:38.613Z,25.07
2018-12-16T18:17:09.967Z,23.00
2018-12-16T18:19:40.324Z,26.60
2018-12-16T18:22:14.123Z,22.33
2018-12-16T18:24:44.027Z,23.43
2018-12-16T18:27:14.217Z,25.17
2018-12-16T18:29:44.287Z,24.07
2018-12-16T18:32:14.507Z,23.80
2018-12-16T18:34:45.261Z,21.77
2018-12-16T18:37:16.836Z,23.07
2018-12-16T18:39:47.608Z,21.27
2018-12-16T18:42:17.776Z,21.80
2018-12-16T18:44:47.989Z,21.93
2018-12-16T18:47:18.176Z,21.07
2018-12-16T18:49:48.219Z,21.60
2018-12-16T18:52:19.326Z,25.10
2018-12-16T18:54:50.022Z,24.20
2018-12-16T18:57:20.837Z,23.87
2018-12-16T18:59:51.983Z,24.70
2018-12-16T19:02:22.300Z,23.90
2018-12-16T19:04:52.444Z,23.70
2018-12-16T19:07:22.703Z,27.87
2018-12-16T19:09:53.334Z,26.70
2018-12-16T19:12:23.526Z,26.27
2018-12-16T19:14:54.270Z,24.67
2018-12-16T19:17:24.579Z,24.00
2018-12-16T19:19:55.000Z,23.60
2018-12-16T19:22:25.657Z,27.53
2018-12-16T19:24:55.836Z,22.47
2018-12-16T19:27:26.823Z,23.80
2018-12-16T19:29:57.167Z,24.17
2018-12-16T19:32:27.423Z,25.00
2018-12-16T19:34:57.782Z,23.93
2018-12-16T19:37:29.427Z,31.50
2018-12-16T19:40:00.568Z,31.77
2018-12-16T19:42:31.697Z,30.10
2018-12-16T19:45:02.550Z,25.47
2018-12-16T19:47:35.014Z,23.47
2018-12-16T19:50:07.658Z,24.97
2018-12-16T19:52:38.902Z,24.13
2018-12-16T19:55:10.325Z,24.90
2018-12-16T19:57:42.736Z,26.10
2018-12-16T20:00:15.210Z,27.27
2018-12-16T20:02:46.937Z,24.27
2018-12-16T20:05:23.631Z,26.40
2018-12-16T20:07:55.398Z,23.30
2018-12-16T20:10:27.600Z,26.07
2018-12-16T20:13:00.028Z,34.97
2018-12-16T20:15:31.682Z,41.93
2018-12-16T20:18:03.028Z,27.43
2018-12-16T20:20:34.019Z,34.03
2018-12-16T20:23:05.927Z,48.50
2018-12-16T20:25:37.558Z,33.83
2018-12-16T20:28:09.215Z,35.80
2018-12-16T20:30:40.141Z,25.80
2018-12-16T20:33:11.328Z,26.77
2018-12-16T20:35:42.493Z,28.90
2018-12-16T20:38:12.947Z,25.33
2018-12-16T20:40:44.581Z,24.80
2018-12-16T20:43:14.721Z,24.37
2018-12-16T20:45:44.916Z,25.40
2018-12-16T20:48:15.975Z,25.20
2018-12-16T20:50:46.895Z,27.10
2018-12-16T20:53:17.754Z,24.97
2018-12-16T20:55:47.871Z,24.03
2018-12-16T20:58:18.006Z,24.00
2018-12-16T21:00:49.455Z,25.37
2018-12-16T21:03:19.563Z,23.27
2018-12-16T21:05:49.784Z,25.50
2018-12-16T21:08:19.859Z,25.07
2018-12-16T21:10:50.169Z,26.20
2018-12-16T21:13:25.396Z,25.80
2018-12-16T21:16:00.659Z,25.70
2018-12-16T21:18:31.624Z,23.77
2018-12-16T21:21:02.895Z,24.77
2018-12-16T21:23:32.981Z,25.57
2018-12-16T21:26:03.880Z,26.87
2018-12-16T21:28:34.074Z,25.90
2018-12-16T21:31:04.063Z,22.63
2018-12-16T21:33:33.956Z,24.30
2018-12-16T21:36:03.917Z,26.33
2018-12-16T21:38:34.590Z,24.33
2018-12-16T21:41:04.639Z,21.70
2018-12-16T21:43:34.936Z,23.90
2018-12-16T21:46:05.580Z,23.33
2018-12-16T21:48:35.655Z,24.30
2018-12-16T21:51:05.868Z,26.30
2018-12-16T21:53:36.671Z,27.00
2018-12-16T21:56:06.714Z,24.47
2018-12-16T21:58:36.752Z,28.10
2018-12-16T22:01:07.019Z,24.17
2018-12-16T22:03:38.086Z,26.80
2018-12-16T22:06:09.037Z,25.50
2018-12-16T22:08:38.970Z,23.37
2018-12-16T22:11:09.087Z,24.40
2018-12-16T22:13:40.290Z,26.60
2018-12-16T22:16:10.572Z,25.80
2018-12-16T22:18:41.714Z,24.73
2018-12-16T22:21:11.902Z,25.57
2018-12-16T22:23:42.131Z,24.90
2018-12-16T22:26:12.802Z,26.70
2018-12-16T22:28:42.826Z,27.50
2018-12-16T22:31:13.796Z,25.27
2018-12-16T22:33:43.985Z,24.37
2018-12-16T22:36:14.047Z,26.10
2018-12-16T22:38:44.773Z,27.13
2018-12-16T22:41:15.362Z,25.93
2018-12-16T22:43:45.454Z,24.37
2018-12-16T22:46:16.795Z,27.70
2018-12-16T22:48:47.059Z,26.30
2018-12-16T22:51:18.310Z,27.83
2018-12-16T22:53:50.195Z,25.83
2018-12-16T22:56:20.131Z,27.40
2018-12-16T22:58:54.355Z,27.30
2018-12-16T23:01:23.184Z,27.63
2018-12-16T23:03:53.906Z,27.27
2018-12-16T23:06:25.222Z,28.33
2018-12-16T23:08:55.367Z,27.03
2018-12-16T23:11:26.637Z,27.60
2018-12-16T23:13:57.514Z,28.07
2018-12-16T23:16:29.069Z,27.37
2018-12-16T23:18:59.221Z,27.33
2018-12-16T23:21:29.402Z,27.80
2018-12-16T23:23:59.486Z,28.37
2018-12-16T23:26:30.409Z,27.23
2018-12-16T23:29:00.526Z,27.33
2018-12-16T23:31:32.390Z,27.40
2018-12-16T23:34:03.277Z,27.73
2018-12-16T23:36:34.318Z,27.37
2018-12-16T23:39:05.196Z,28.40
2018-12-16T23:41:35.417Z,27.73
2018-12-16T23:44:06.159Z,29.10
2018-12-16T23:46:36.985Z,25.20
2018-12-16T23:49:07.163Z,25.43
2018-12-16T23:51:37.478Z,27.23
2018-12-16T23:54:08.712Z,27.93
2018-12-16T23:56:39.429Z,26.83
2018-12-16T23:59:10.899Z,28.97
